Baldwin, Florida
Current Conditions -  °F | °C
As of 2:50 PM on Wednesday 17 Dec 2014 (Local Time) from KVQQ Reporting Station
Clear Clear  
Wind Chill: 66°   Ceiling: Unl
Heat Index: 66°   Visibility: 10mi
Dew Point: 41°   Wind: 5mph
Humidity: 40%   Direction: NA
Pressure: 30.11"   Gusts: NA
Location:  30.2098°N, 81.9726°W
Report Text: KVQQ 171950Z VRB04KT 10SM CLR 19/05 A3011
Loading
Personal Weather Stations






























Interactive Weather Map New forecast layout! Learn more

10-Day Weather Forecast

Advertisements
Track Severe Weather on mobile